createdAt,value
2017-12-17T00:02:11.057Z,12.30
2017-12-17T00:04:38.513Z,13.60
2017-12-17T00:07:05.964Z,12.95
2017-12-17T00:09:33.417Z,13.32
2017-12-17T00:12:00.873Z,14.13
2017-12-17T00:14:28.325Z,12.80
2017-12-17T00:16:55.790Z,12.88
2017-12-17T00:19:23.256Z,14.52
2017-12-17T00:21:50.713Z,13.32
2017-12-17T00:24:18.178Z,13.77
2017-12-17T00:26:45.629Z,14.23
2017-12-17T00:29:13.087Z,13.95
2017-12-17T00:31:40.545Z,12.73
2017-12-17T00:34:07.996Z,13.65
2017-12-17T00:36:35.448Z,13.82
2017-12-17T00:39:03.064Z,14.00
2017-12-17T00:41:30.673Z,13.50
2017-12-17T00:43:58.128Z,12.23
2017-12-17T00:46:25.581Z,12.25
2017-12-17T00:48:53.041Z,13.68
2017-12-17T00:51:20.503Z,12.52
2017-12-17T00:53:48.016Z,13.60
2017-12-17T00:56:15.471Z,11.52
2017-12-17T00:58:42.929Z,12.18
2017-12-17T01:01:10.381Z,13.35
2017-12-17T01:03:37.833Z,12.82
2017-12-17T01:06:05.300Z,11.95
2017-12-17T01:08:32.760Z,13.30
2017-12-17T01:11:00.213Z,12.85
2017-12-17T01:13:27.669Z,12.43
2017-12-17T01:15:55.127Z,12.57
2017-12-17T01:18:22.584Z,13.00
2017-12-17T01:20:50.033Z,12.52
2017-12-17T01:23:17.476Z,12.98
2017-12-17T01:25:44.941Z,12.95
2017-12-17T01:28:12.397Z,13.73
2017-12-17T01:30:39.853Z,14.38
2017-12-17T01:33:07.312Z,13.45
2017-12-17T01:35:34.827Z,14.50
2017-12-17T01:38:02.305Z,15.10
2017-12-17T01:40:29.761Z,13.88
2017-12-17T01:42:57.219Z,14.50
2017-12-17T01:45:24.669Z,15.10
2017-12-17T01:47:52.136Z,14.45
2017-12-17T01:50:20.416Z,16.45
2017-12-17T01:52:47.868Z,15.23
2017-12-17T01:55:15.317Z,15.70
2017-12-17T01:57:42.764Z,15.68
2017-12-17T02:00:10.213Z,15.18
2017-12-17T02:02:37.668Z,15.45
2017-12-17T02:05:05.132Z,16.00
2017-12-17T02:07:32.583Z,16.90
2017-12-17T02:10:00.040Z,15.70
2017-12-17T02:12:27.489Z,15.98
2017-12-17T02:14:54.945Z,16.02
2017-12-17T02:17:22.389Z,16.45
2017-12-17T02:19:49.844Z,17.05
2017-12-17T02:22:17.301Z,15.40
2017-12-17T02:24:44.764Z,16.08
2017-12-17T02:27:12.224Z,16.87
2017-12-17T02:29:39.673Z,15.35
2017-12-17T02:32:07.129Z,15.90
2017-12-17T02:34:34.572Z,16.05
2017-12-17T02:37:02.033Z,15.65
2017-12-17T02:39:29.486Z,16.45
2017-12-17T02:41:56.943Z,16.60
2017-12-17T02:44:24.400Z,14.90
2017-12-17T02:46:51.861Z,14.57
2017-12-17T02:49:19.323Z,15.25
2017-12-17T02:51:46.777Z,16.00
2017-12-17T02:54:14.241Z,15.35
2017-12-17T02:56:41.693Z,15.40
2017-12-17T02:59:09.146Z,14.35
2017-12-17T03:01:36.610Z,16.45
2017-12-17T03:04:04.067Z,14.70
2017-12-17T03:06:31.528Z,15.65
2017-12-17T03:08:58.989Z,15.18
2017-12-17T03:11:26.438Z,16.02
2017-12-17T03:13:53.898Z,14.93
2017-12-17T03:16:21.370Z,15.93
2017-12-17T03:18:48.813Z,14.90
2017-12-17T03:21:16.265Z,16.40
2017-12-17T03:23:43.718Z,16.15
2017-12-17T03:26:11.173Z,15.57
2017-12-17T03:28:38.628Z,14.90
2017-12-17T03:31:06.073Z,16.90
2017-12-17T03:33:33.525Z,15.65
2017-12-17T03:36:00.972Z,16.05
2017-12-17T03:38:28.429Z,15.35
2017-12-17T03:40:55.874Z,14.77
2017-12-17T03:43:23.337Z,15.40
2017-12-17T03:45:50.793Z,15.57
2017-12-17T03:48:18.252Z,15.48
2017-12-17T03:50:45.712Z,15.45
2017-12-17T03:53:13.156Z,15.02
2017-12-17T03:55:40.605Z,14.45
2017-12-17T03:58:08.057Z,15.05
2017-12-17T04:00:35.522Z,16.05
2017-12-17T04:03:02.976Z,15.00
2017-12-17T04:05:30.444Z,15.73
2017-12-17T04:07:57.900Z,15.65
2017-12-17T04:10:25.352Z,14.85
2017-12-17T04:12:52.806Z,16.42
2017-12-17T04:15:20.270Z,16.73
2017-12-17T04:17:47.753Z,15.82
2017-12-17T04:20:15.201Z,16.30
2017-12-17T04:22:42.661Z,16.42
2017-12-17T04:25:10.109Z,16.90
2017-12-17T04:27:37.564Z,15.40
2017-12-17T04:30:05.024Z,16.52
2017-12-17T04:32:32.473Z,16.40
2017-12-17T04:34:59.929Z,16.87
2017-12-17T04:37:27.380Z,17.90
2017-12-17T04:39:54.826Z,16.45
2017-12-17T04:42:22.285Z,16.35
2017-12-17T04:44:49.741Z,16.48
2017-12-17T04:47:17.188Z,17.87
2017-12-17T04:49:44.639Z,16.55
2017-12-17T04:52:12.921Z,16.15
2017-12-17T04:54:40.377Z,18.00
2017-12-17T04:57:07.829Z,17.05
2017-12-17T04:59:35.281Z,16.60
2017-12-17T05:02:02.725Z,16.23
2017-12-17T05:04:30.184Z,17.73
2017-12-17T05:06:57.632Z,16.62
2017-12-17T05:09:25.097Z,16.77
2017-12-17T05:11:52.565Z,16.10
2017-12-17T05:14:20.022Z,16.40
2017-12-17T05:16:47.482Z,15.90
2017-12-17T05:19:14.941Z,15.90
2017-12-17T05:21:42.401Z,15.60
2017-12-17T05:24:09.840Z,15.13
2017-12-17T05:26:37.289Z,16.40
2017-12-17T05:29:04.753Z,15.52
2017-12-17T05:31:32.205Z,16.77
2017-12-17T05:33:59.654Z,15.90
2017-12-17T05:36:27.113Z,16.30
2017-12-17T05:38:54.576Z,16.65
2017-12-17T05:41:22.036Z,15.68
2017-12-17T05:43:49.486Z,14.40
2017-12-17T05:46:16.940Z,15.43
2017-12-17T05:48:44.401Z,16.05
2017-12-17T05:51:11.851Z,16.20
2017-12-17T05:53:39.306Z,14.65
2017-12-17T05:56:06.761Z,13.48
2017-12-17T05:58:34.217Z,13.90
2017-12-17T06:01:01.672Z,15.07
2017-12-17T06:03:29.121Z,14.02
2017-12-17T06:05:56.572Z,13.38
2017-12-17T06:08:24.016Z,16.33
2017-12-17T06:10:51.465Z,15.75
2017-12-17T06:13:18.916Z,16.17
2017-12-17T06:15:46.375Z,15.50
2017-12-17T06:18:13.827Z,15.85
2017-12-17T06:20:41.273Z,15.60
2017-12-17T06:23:08.721Z,15.25
2017-12-17T06:25:36.165Z,15.05
2017-12-17T06:28:03.678Z,15.63
2017-12-17T06:30:31.088Z,15.05
2017-12-17T06:32:58.542Z,15.15
2017-12-17T06:35:25.993Z,15.30
2017-12-17T06:37:53.436Z,16.25
2017-12-17T06:40:20.883Z,15.57
2017-12-17T06:42:48.346Z,15.05
2017-12-17T06:45:15.797Z,14.98
2017-12-17T06:47:43.246Z,15.15
2017-12-17T06:50:10.704Z,14.90
2017-12-17T06:52:38.161Z,15.02
2017-12-17T06:55:05.616Z,14.70
2017-12-17T06:57:33.080Z,15.80
2017-12-17T07:00:00.587Z,15.82
2017-12-17T07:02:28.033Z,14.35
2017-12-17T07:04:55.476Z,14.15
2017-12-17T07:07:22.920Z,14.13
2017-12-17T07:09:50.373Z,13.45
2017-12-17T07:12:17.845Z,13.07
2017-12-17T07:14:45.307Z,14.38
2017-12-17T07:17:12.775Z,12.50
2017-12-17T07:19:40.228Z,13.60
2017-12-17T07:22:07.681Z,13.57
2017-12-17T07:24:35.137Z,13.50
2017-12-17T07:27:02.585Z,13.27
2017-12-17T07:29:30.033Z,13.95
2017-12-17T07:31:57.485Z,13.95
2017-12-17T07:34:24.942Z,12.93
2017-12-17T07:36:52.401Z,14.07
2017-12-17T07:39:19.853Z,12.63
2017-12-17T07:41:47.300Z,12.65
2017-12-17T07:44:14.751Z,12.75
2017-12-17T07:46:42.197Z,11.70
2017-12-17T07:49:09.657Z,13.07
2017-12-17T07:51:37.113Z,11.23
2017-12-17T07:54:04.589Z,11.65
2017-12-17T07:56:32.046Z,11.55
2017-12-17T07:58:59.509Z,11.50
2017-12-17T08:01:26.969Z,10.18
2017-12-17T08:03:54.420Z,11.90
2017-12-17T08:06:21.909Z,11.95
2017-12-17T08:08:49.357Z,11.12
2017-12-17T08:11:16.804Z,12.57
2017-12-17T08:13:44.258Z,11.15
2017-12-17T08:16:11.717Z,11.70
2017-12-17T08:18:39.173Z,11.73
2017-12-17T08:21:06.625Z,12.27
2017-12-17T08:23:34.101Z,12.20
2017-12-17T08:26:01.550Z,12.40
2017-12-17T08:28:29.306Z,12.70
2017-12-17T08:30:56.854Z,12.90
2017-12-17T08:33:24.316Z,12.80
2017-12-17T08:35:51.764Z,12.85
2017-12-17T08:38:19.220Z,14.30
2017-12-17T08:40:46.817Z,13.43
2017-12-17T08:43:14.321Z,13.15
2017-12-17T08:45:41.783Z,13.57
2017-12-17T08:48:09.249Z,12.15
2017-12-17T08:50:36.705Z,12.60
2017-12-17T08:53:04.209Z,12.25
2017-12-17T08:55:31.867Z,13.25
2017-12-17T08:57:59.320Z,15.13
2017-12-17T09:00:26.789Z,10.88
2017-12-17T09:02:54.269Z,10.93
2017-12-17T09:05:21.767Z,10.27
2017-12-17T09:07:49.348Z,10.25
2017-12-17T09:10:17.620Z,10.35
2017-12-17T09:12:45.085Z,10.35
2017-12-17T09:15:12.549Z,9.48
2017-12-17T09:17:40.072Z,10.18
2017-12-17T09:20:07.579Z,10.10
2017-12-17T09:22:35.038Z,9.88
2017-12-17T09:25:02.494Z,9.73
2017-12-17T09:27:29.950Z,10.02
2017-12-17T09:29:57.401Z,9.88
2017-12-17T09:32:24.850Z,8.63
2017-12-17T09:34:52.301Z,7.85
2017-12-17T09:37:19.761Z,7.57
2017-12-17T09:39:47.292Z,8.20
2017-12-17T09:42:14.698Z,7.75
2017-12-17T09:44:42.141Z,7.80
2017-12-17T09:47:09.584Z,7.95
2017-12-17T09:49:37.033Z,7.62
2017-12-17T09:52:04.468Z,6.85
2017-12-17T09:54:31.891Z,7.75
2017-12-17T09:56:59.368Z,6.87
2017-12-17T09:59:26.836Z,7.50
2017-12-17T10:01:54.281Z,6.53
2017-12-17T10:04:21.795Z,6.35
2017-12-17T10:06:49.252Z,6.60
2017-12-17T10:09:16.697Z,7.25
2017-12-17T10:11:44.180Z,6.78
2017-12-17T10:14:11.633Z,6.80
2017-12-17T10:16:39.084Z,6.68
2017-12-17T10:19:06.545Z,7.05
2017-12-17T10:21:34.021Z,6.47
2017-12-17T10:24:01.528Z,7.10
2017-12-17T10:26:28.977Z,7.07
2017-12-17T10:28:56.425Z,7.60
2017-12-17T10:31:23.889Z,7.10
2017-12-17T10:33:51.345Z,6.40
2017-12-17T10:36:18.799Z,7.37
2017-12-17T10:38:46.254Z,7.15
2017-12-17T10:41:13.697Z,7.07
2017-12-17T10:43:41.196Z,7.05
2017-12-17T10:46:08.649Z,6.30
2017-12-17T10:48:36.096Z,6.22
2017-12-17T10:51:03.550Z,6.95
2017-12-17T10:53:31.013Z,7.28
2017-12-17T10:55:58.477Z,6.60
2017-12-17T10:58:25.946Z,7.07
2017-12-17T11:00:53.410Z,6.85
2017-12-17T11:03:20.861Z,6.90
2017-12-17T11:05:48.345Z,6.82
2017-12-17T11:08:15.790Z,6.20
2017-12-17T11:10:43.264Z,6.50
2017-12-17T11:13:10.755Z,6.37
2017-12-17T11:15:38.208Z,6.45
2017-12-17T11:18:05.717Z,6.60
2017-12-17T11:20:33.168Z,7.28
2017-12-17T11:23:00.619Z,6.28
2017-12-17T11:25:28.071Z,6.95
2017-12-17T11:27:55.512Z,6.87
2017-12-17T11:30:22.965Z,6.20
2017-12-17T11:32:50.421Z,6.97
2017-12-17T11:35:17.865Z,6.80
2017-12-17T11:37:45.313Z,6.85
2017-12-17T11:40:12.761Z,7.12
2017-12-17T11:42:40.204Z,8.30
2017-12-17T11:45:07.661Z,8.10
2017-12-17T11:47:35.104Z,8.57
2017-12-17T11:50:02.553Z,6.80
2017-12-17T11:52:30.021Z,6.72
2017-12-17T11:54:57.504Z,6.57
2017-12-17T11:57:24.958Z,6.82
2017-12-17T11:59:52.426Z,6.80
2017-12-17T12:02:19.897Z,9.05
2017-12-17T12:04:47.483Z,6.60
2017-12-17T12:07:14.936Z,7.20
2017-12-17T12:09:42.414Z,7.32
2017-12-17T12:12:09.878Z,8.68
2017-12-17T12:14:37.342Z,7.00
2017-12-17T12:17:04.794Z,7.25
2017-12-17T12:19:32.322Z,7.65
2017-12-17T12:21:59.778Z,7.85
2017-12-17T12:24:27.411Z,6.97
2017-12-17T12:26:55.064Z,6.70
2017-12-17T12:29:22.736Z,7.12
2017-12-17T12:31:50.443Z,8.32
2017-12-17T12:34:18.152Z,7.57
2017-12-17T12:36:47.545Z,9.20
2017-12-17T12:39:15.022Z,8.18
2017-12-17T12:41:42.468Z,7.45
2017-12-17T12:44:09.913Z,6.95
2017-12-17T12:46:37.361Z,7.85
2017-12-17T12:49:04.813Z,7.60
2017-12-17T12:51:32.276Z,8.65
2017-12-17T12:53:59.725Z,8.05
2017-12-17T12:56:27.162Z,8.18
2017-12-17T12:58:54.609Z,8.55
2017-12-17T13:01:22.051Z,7.93
2017-12-17T13:03:49.497Z,7.53
2017-12-17T13:06:16.953Z,8.50
2017-12-17T13:08:44.408Z,8.65
2017-12-17T13:11:11.871Z,10.63
2017-12-17T13:13:39.337Z,9.43
2017-12-17T13:16:06.788Z,9.73
2017-12-17T13:18:34.240Z,8.25
2017-12-17T13:21:01.700Z,8.57
2017-12-17T13:23:29.158Z,8.55
2017-12-17T13:25:56.622Z,9.18
2017-12-17T13:28:24.124Z,8.48
2017-12-17T13:30:51.577Z,8.25
2017-12-17T13:33:19.037Z,11.10
2017-12-17T13:35:46.508Z,9.23
2017-12-17T13:38:13.973Z,8.73
2017-12-17T13:40:41.421Z,8.48
2017-12-17T13:43:08.869Z,8.90
2017-12-17T13:45:36.332Z,9.05
2017-12-17T13:48:03.789Z,9.00
2017-12-17T13:50:31.249Z,9.52
2017-12-17T13:52:58.726Z,10.27
2017-12-17T13:55:26.189Z,11.30
2017-12-17T13:57:53.653Z,10.30
2017-12-17T14:00:21.109Z,10.13
2017-12-17T14:02:48.565Z,9.00
2017-12-17T14:05:16.026Z,9.20
2017-12-17T14:07:43.489Z,9.55
2017-12-17T14:10:10.946Z,9.43
2017-12-17T14:12:38.527Z,9.25
2017-12-17T14:15:06.001Z,10.45
2017-12-17T14:17:33.465Z,9.60
2017-12-17T14:20:00.927Z,8.55
2017-12-17T14:22:28.380Z,10.13
2017-12-17T14:24:55.833Z,9.65
2017-12-17T14:27:23.287Z,9.27
2017-12-17T14:29:50.745Z,9.60
2017-12-17T14:32:18.200Z,9.90
2017-12-17T14:34:45.665Z,9.48
2017-12-17T14:37:13.121Z,9.20
2017-12-17T14:39:40.585Z,10.32
2017-12-17T14:42:08.092Z,9.02
2017-12-17T14:44:35.523Z,8.55
2017-12-17T14:47:02.981Z,8.43
2017-12-17T14:49:30.444Z,8.40
2017-12-17T14:51:57.896Z,9.00
2017-12-17T14:54:25.352Z,8.80
2017-12-17T14:56:52.801Z,8.00
2017-12-17T14:59:20.261Z,8.30
2017-12-17T15:01:47.713Z,7.50
2017-12-17T15:04:15.164Z,8.35
2017-12-17T15:06:42.622Z,8.18
2017-12-17T15:09:10.076Z,7.90
2017-12-17T15:11:37.534Z,8.23
2017-12-17T15:14:04.985Z,8.65
2017-12-17T15:16:32.436Z,7.60
2017-12-17T15:18:59.885Z,7.47
2017-12-17T15:21:27.353Z,7.78
2017-12-17T15:23:54.826Z,7.50
2017-12-17T15:26:22.284Z,7.62
2017-12-17T15:28:49.733Z,8.18
2017-12-17T15:31:17.190Z,8.65
2017-12-17T15:33:44.656Z,7.75
2017-12-17T15:36:12.104Z,8.60
2017-12-17T15:38:39.564Z,8.60
2017-12-17T15:41:07.027Z,8.35
2017-12-17T15:43:34.481Z,8.25
2017-12-17T15:46:01.937Z,8.85
2017-12-17T15:48:29.392Z,10.45
2017-12-17T15:50:56.853Z,8.20
2017-12-17T15:53:24.313Z,8.98
2017-12-17T15:55:51.763Z,8.73
2017-12-17T15:58:19.224Z,8.73
2017-12-17T16:00:46.682Z,8.15
2017-12-17T16:03:14.141Z,9.23
2017-12-17T16:05:41.601Z,10.15
2017-12-17T16:08:09.048Z,9.43
2017-12-17T16:10:36.492Z,8.02
2017-12-17T16:13:03.940Z,8.20
2017-12-17T16:15:31.393Z,8.23
2017-12-17T16:17:58.845Z,8.77
2017-12-17T16:20:26.305Z,8.50
2017-12-17T16:22:53.752Z,9.13
2017-12-17T16:25:21.230Z,8.30
2017-12-17T16:27:48.672Z,9.20
2017-12-17T16:30:16.138Z,9.50
2017-12-17T16:32:43.601Z,10.38
2017-12-17T16:35:11.054Z,9.13
2017-12-17T16:37:38.510Z,9.30
2017-12-17T16:40:05.960Z,10.38
2017-12-17T16:42:33.408Z,12.85
2017-12-17T16:45:00.861Z,12.13
2017-12-17T16:47:28.280Z,12.65
2017-12-17T16:49:55.807Z,13.85
2017-12-17T16:52:23.269Z,14.35
2017-12-17T16:54:50.719Z,12.82
2017-12-17T16:57:18.189Z,12.35
2017-12-17T16:59:45.646Z,12.32
2017-12-17T17:02:13.097Z,13.40
2017-12-17T17:04:40.548Z,13.98
2017-12-17T17:07:08.013Z,14.65
2017-12-17T17:09:35.469Z,14.15
2017-12-17T17:12:02.920Z,14.23
2017-12-17T17:14:30.368Z,13.95
2017-12-17T17:16:57.821Z,14.80
2017-12-17T17:19:25.277Z,13.27
2017-12-17T17:21:52.737Z,15.02
2017-12-17T17:24:20.193Z,14.70
2017-12-17T17:26:47.651Z,13.32
2017-12-17T17:29:15.101Z,14.48
2017-12-17T17:31:42.558Z,14.57
2017-12-17T17:34:10.008Z,15.55
2017-12-17T17:36:37.452Z,15.63
2017-12-17T17:39:04.904Z,14.35
2017-12-17T17:41:32.364Z,16.85
2017-12-17T17:43:59.871Z,15.98
2017-12-17T17:46:27.327Z,15.18
2017-12-17T17:48:54.816Z,15.65
2017-12-17T17:51:22.249Z,16.60
2017-12-17T17:53:49.706Z,14.87
2017-12-17T17:56:17.165Z,17.70
2017-12-17T17:58:44.617Z,17.33
2017-12-17T18:01:12.087Z,17.05
2017-12-17T18:03:39.550Z,16.02
2017-12-17T18:06:07.041Z,17.05
2017-12-17T18:08:34.497Z,16.37
2017-12-17T18:11:01.951Z,16.55
2017-12-17T18:13:29.397Z,16.87
2017-12-17T18:15:56.840Z,17.25
2017-12-17T18:18:24.283Z,17.02
2017-12-17T18:20:51.741Z,17.65
2017-12-17T18:23:19.205Z,18.52
2017-12-17T18:25:46.668Z,17.73
2017-12-17T18:28:14.125Z,16.65
2017-12-17T18:30:41.626Z,18.37
2017-12-17T18:33:09.065Z,16.52
2017-12-17T18:35:36.521Z,16.05
2017-12-17T18:38:03.972Z,17.77
2017-12-17T18:40:31.415Z,18.85
2017-12-17T18:42:58.869Z,17.77
2017-12-17T18:45:26.357Z,17.35
2017-12-17T18:47:53.812Z,18.00
2017-12-17T18:50:21.276Z,17.05
2017-12-17T18:52:48.728Z,16.42
2017-12-17T18:55:16.181Z,14.82
2017-12-17T18:57:43.636Z,13.73
2017-12-17T19:00:11.099Z,13.15
2017-12-17T19:02:38.552Z,14.30
2017-12-17T19:05:06.009Z,15.25
2017-12-17T19:07:33.482Z,12.00
2017-12-17T19:10:00.942Z,12.13
2017-12-17T19:12:28.396Z,14.95
2017-12-17T19:14:55.845Z,13.25
2017-12-17T19:17:23.301Z,11.00
2017-12-17T19:19:50.753Z,11.10
2017-12-17T19:22:18.205Z,11.23
2017-12-17T19:24:45.669Z,12.35
2017-12-17T19:27:13.130Z,10.85
2017-12-17T19:29:40.585Z,11.15
2017-12-17T19:32:08.037Z,10.57
2017-12-17T19:34:35.489Z,10.90
2017-12-17T19:37:02.945Z,11.02
2017-12-17T19:39:30.428Z,10.60
2017-12-17T19:41:57.884Z,11.80
2017-12-17T19:44:25.349Z,10.20
2017-12-17T19:46:52.797Z,11.07
2017-12-17T19:49:20.262Z,9.63
2017-12-17T19:51:47.749Z,10.18
2017-12-17T19:54:15.204Z,10.38
2017-12-17T19:56:42.729Z,10.23
2017-12-17T19:59:10.215Z,9.68
2017-12-17T20:01:37.674Z,9.57
2017-12-17T20:04:05.177Z,8.88
2017-12-17T20:06:32.620Z,10.13
2017-12-17T20:09:00.068Z,10.93
2017-12-17T20:11:27.530Z,10.98
2017-12-17T20:13:55.039Z,9.45
2017-12-17T20:16:22.496Z,9.18
2017-12-17T20:18:49.963Z,9.18
2017-12-17T20:21:17.459Z,9.10
2017-12-17T20:23:44.934Z,8.50
2017-12-17T20:26:12.404Z,9.52
2017-12-17T20:28:39.903Z,9.65
2017-12-17T20:31:07.384Z,9.40
2017-12-17T20:33:34.852Z,8.95
2017-12-17T20:36:02.338Z,9.57
2017-12-17T20:38:29.822Z,8.93
2017-12-17T20:40:57.293Z,8.48
2017-12-17T20:43:24.774Z,9.02
2017-12-17T20:45:52.276Z,8.60
2017-12-17T20:48:19.737Z,8.63
2017-12-17T20:50:47.210Z,8.50
2017-12-17T20:53:14.681Z,8.70
2017-12-17T20:55:42.208Z,8.00
2017-12-17T20:58:09.730Z,8.30
2017-12-17T21:00:37.484Z,8.35
2017-12-17T21:03:05.039Z,7.62
2017-12-17T21:05:32.496Z,8.25
2017-12-17T21:07:59.945Z,8.07
2017-12-17T21:10:27.392Z,8.25
2017-12-17T21:12:54.850Z,9.30
2017-12-17T21:15:22.308Z,8.68
2017-12-17T21:17:49.758Z,8.82
2017-12-17T21:20:17.213Z,12.50
2017-12-17T21:22:44.660Z,9.13
2017-12-17T21:25:12.116Z,9.23
2017-12-17T21:27:39.573Z,8.23
2017-12-17T21:30:07.021Z,9.25
2017-12-17T21:32:34.474Z,8.50
2017-12-17T21:35:02.005Z,8.50
2017-12-17T21:37:29.465Z,8.65
2017-12-17T21:39:56.912Z,9.48
2017-12-17T21:42:24.369Z,8.30
2017-12-17T21:44:51.830Z,9.10
2017-12-17T21:47:19.293Z,8.75
2017-12-17T21:49:46.745Z,9.38
2017-12-17T21:52:14.198Z,9.55
2017-12-17T21:54:41.657Z,10.70
2017-12-17T21:57:09.109Z,9.30
2017-12-17T21:59:36.557Z,8.60
2017-12-17T22:02:04.008Z,9.27
2017-12-17T22:04:31.462Z,10.27
2017-12-17T22:06:58.909Z,9.82
2017-12-17T22:09:26.361Z,9.63
2017-12-17T22:11:53.817Z,10.32
2017-12-17T22:14:21.278Z,10.75
2017-12-17T22:16:48.729Z,11.30
2017-12-17T22:19:16.184Z,10.48
2017-12-17T22:21:43.636Z,10.10
2017-12-17T22:24:11.093Z,11.60
2017-12-17T22:26:38.727Z,10.27
2017-12-17T22:29:06.185Z,11.30
2017-12-17T22:31:34.118Z,12.10
2017-12-17T22:34:01.688Z,10.82
2017-12-17T22:36:29.282Z,12.05
2017-12-17T22:38:56.821Z,11.35
2017-12-17T22:41:24.305Z,12.32
2017-12-17T22:43:51.765Z,12.77
2017-12-17T22:46:19.208Z,14.20
2017-12-17T22:48:46.669Z,13.25
2017-12-17T22:51:14.141Z,13.57
2017-12-17T22:53:41.588Z,13.55
2017-12-17T22:56:09.057Z,14.70
2017-12-17T22:58:36.512Z,15.25
2017-12-17T23:01:03.963Z,12.50
2017-12-17T23:03:31.420Z,14.90
2017-12-17T23:05:58.876Z,16.08
2017-12-17T23:08:26.329Z,15.43
2017-12-17T23:10:53.784Z,15.07
2017-12-17T23:13:21.241Z,15.00
2017-12-17T23:15:48.701Z,15.65
2017-12-17T23:18:16.153Z,15.77
2017-12-17T23:20:43.605Z,14.95
2017-12-17T23:23:11.065Z,14.40
2017-12-17T23:25:38.525Z,14.70
2017-12-17T23:28:06.102Z,14.82
2017-12-17T23:30:37.473Z,14.07
2017-12-17T23:33:04.927Z,14.50
2017-12-17T23:35:32.381Z,13.85
2017-12-17T23:37:59.857Z,14.40
2017-12-17T23:40:27.313Z,15.73
2017-12-17T23:42:54.765Z,14.07
2017-12-17T23:45:22.288Z,14.60
2017-12-17T23:47:49.705Z,14.35
2017-12-17T23:50:17.152Z,15.10
2017-12-17T23:52:44.600Z,14.20
2017-12-17T23:55:12.048Z,13.43
2017-12-17T23:57:39.505Z,14.55
